createdAt,value
2023-05-24T00:03:30.995Z,23.52
2023-05-24T00:08:33.964Z,26.92
2023-05-24T00:13:38.341Z,24.08
2023-05-24T00:18:42.064Z,31.15
2023-05-24T00:23:45.565Z,28.67
2023-05-24T00:28:49.728Z,24.38
2023-05-24T00:33:54.053Z,24.42
2023-05-24T00:38:56.832Z,21.13
2023-05-24T00:44:01.053Z,26.33
2023-05-24T00:49:05.271Z,22.25
2023-05-24T00:54:08.185Z,21.85
2023-05-24T00:59:12.555Z,23.85
2023-05-24T01:04:17.654Z,23.33
2023-05-24T01:09:29.930Z,25.55
2023-05-24T01:14:45.990Z,26.52
2023-05-24T01:20:00.034Z,20.33
2023-05-24T01:25:05.861Z,22.13
2023-05-24T01:30:11.128Z,19.80
2023-05-24T01:35:14.013Z,28.35
2023-05-24T01:40:17.302Z,28.05
2023-05-24T01:45:29.766Z,22.65
2023-05-24T01:50:35.072Z,23.98
2023-05-24T01:55:39.093Z,26.85
2023-05-24T02:00:45.698Z,22.85
2023-05-24T02:05:49.337Z,32.05
2023-05-24T02:10:52.225Z,23.40
2023-05-24T02:15:56.419Z,27.63
2023-05-24T02:21:02.150Z,20.45
2023-05-24T02:26:05.027Z,29.60
2023-05-24T02:31:09.170Z,24.75
2023-05-24T02:36:12.081Z,22.05
2023-05-24T02:41:18.056Z,24.95
2023-05-24T02:46:22.307Z,24.60
2023-05-24T02:51:25.229Z,26.55
2023-05-24T02:56:29.165Z,23.17
2023-05-24T03:01:34.393Z,23.83
2023-05-24T03:06:38.675Z,24.38
2023-05-24T03:11:41.529Z,22.13
2023-05-24T03:16:46.733Z,24.77
2023-05-24T03:21:49.604Z,24.02
2023-05-24T03:26:52.383Z,25.25
2023-05-24T03:31:56.695Z,23.42
2023-05-24T03:37:00.323Z,20.40
2023-05-24T03:42:04.268Z,25.98
2023-05-24T03:47:09.617Z,20.20
2023-05-24T03:52:13.005Z,21.42
2023-05-24T03:57:15.942Z,25.45
2023-05-24T04:02:20.229Z,19.88
2023-05-24T04:07:24.509Z,26.77
2023-05-24T04:12:27.534Z,25.10
2023-05-24T04:17:35.140Z,22.30
2023-05-24T04:22:38.379Z,27.15
2023-05-24T04:27:41.345Z,29.83
2023-05-24T04:32:46.046Z,28.27
2023-05-24T04:37:49.692Z,27.98
2023-05-24T04:42:53.694Z,23.73
2023-05-24T04:47:58.258Z,24.17
2023-05-24T04:53:01.179Z,26.75
2023-05-24T04:58:04.393Z,23.50
2023-05-24T05:03:08.870Z,27.15
2023-05-24T05:08:11.985Z,26.60
2023-05-24T05:13:14.903Z,20.33
2023-05-24T05:18:19.395Z,20.63
2023-05-24T05:23:22.407Z,22.05
2023-05-24T05:28:25.335Z,26.73
2023-05-24T05:33:29.985Z,23.65
2023-05-24T05:38:32.765Z,19.90
2023-05-24T05:43:35.745Z,25.52
2023-05-24T05:48:40.014Z,22.50
2023-05-24T05:53:42.999Z,25.58
2023-05-24T05:58:45.839Z,22.55
2023-05-24T06:03:50.136Z,26.30
2023-05-24T06:08:53.144Z,23.48
2023-05-24T06:13:56.048Z,32.25
2023-05-24T06:19:05.804Z,28.70
2023-05-24T06:24:09.769Z,30.45
2023-05-24T06:29:12.634Z,30.58
2023-05-24T06:34:17.739Z,25.27
2023-05-24T06:39:20.954Z,29.23
2023-05-24T06:44:30.871Z,34.13
2023-05-24T06:49:35.088Z,23.33
2023-05-24T06:54:39.061Z,23.92
2023-05-24T06:59:42.214Z,29.85
2023-05-24T07:04:46.497Z,25.90
2023-05-24T07:09:49.333Z,26.60
2023-05-24T07:14:52.200Z,28.38
2023-05-24T07:19:57.014Z,30.25
2023-05-24T07:24:59.834Z,33.47
2023-05-24T07:30:02.755Z,29.48
2023-05-24T07:35:08.141Z,31.23
2023-05-24T07:40:12.242Z,26.80
2023-05-24T07:45:15.109Z,26.70
2023-05-24T07:50:20.087Z,28.00
2023-05-24T07:55:22.947Z,24.30
2023-05-24T08:00:25.992Z,29.63
2023-05-24T08:05:30.207Z,24.90
2023-05-24T08:10:33.162Z,31.17
2023-05-24T08:15:36.299Z,31.10
2023-05-24T08:20:41.219Z,30.45
2023-05-24T08:25:44.801Z,25.35
2023-05-24T08:30:48.127Z,28.33
2023-05-24T08:35:52.962Z,26.05
2023-05-24T08:40:56.004Z,24.80
2023-05-24T08:46:00.105Z,25.58
2023-05-24T08:51:04.520Z,22.50
2023-05-24T08:56:08.985Z,31.65
2023-05-24T09:01:12.993Z,25.90
2023-05-24T09:06:18.895Z,26.90
2023-05-24T09:11:22.829Z,30.85
2023-05-24T09:16:26.229Z,21.13
2023-05-24T09:21:30.743Z,15.93
2023-05-24T09:26:34.043Z,20.27
2023-05-24T09:31:38.440Z,16.80
2023-05-24T09:36:44.071Z,19.50
2023-05-24T09:41:55.753Z,15.63
2023-05-24T09:47:05.364Z,18.33
2023-05-24T09:52:09.739Z,19.42
2023-05-24T09:57:12.628Z,20.70
2023-05-24T10:02:18.542Z,15.68
2023-05-24T10:07:22.884Z,15.93
2023-05-24T10:12:26.184Z,17.65
2023-05-24T10:17:29.310Z,22.42
2023-05-24T10:22:38.707Z,13.57
2023-05-24T10:27:42.590Z,14.43
2023-05-24T10:32:49.029Z,14.15
2023-05-24T10:37:54.487Z,13.13
2023-05-24T10:42:57.341Z,12.05
2023-05-24T10:48:03.349Z,18.48
2023-05-24T10:53:14.851Z,12.88
2023-05-24T10:58:17.715Z,12.10
2023-05-24T11:03:23.798Z,10.90
2023-05-24T11:08:33.288Z,12.30
2023-05-24T11:13:37.911Z,13.45
2023-05-24T11:18:40.918Z,21.95
2023-05-24T11:23:45.478Z,15.30
2023-05-24T11:28:49.024Z,12.95
2023-05-24T11:33:51.826Z,19.45
2023-05-24T11:38:56.794Z,18.88
2023-05-24T11:44:00.068Z,14.98
2023-05-24T11:49:03.753Z,16.20
2023-05-24T11:54:08.027Z,15.48
2023-05-24T11:59:16.339Z,10.23
2023-05-24T12:04:19.570Z,13.15
2023-05-24T12:09:24.757Z,14.13
2023-05-24T12:14:30.957Z,11.32
2023-05-24T12:19:36.274Z,9.30
2023-05-24T12:24:42.278Z,9.82
2023-05-24T12:29:45.194Z,15.15
2023-05-24T12:34:50.888Z,12.05
2023-05-24T12:39:55.085Z,12.57
2023-05-24T12:44:58.197Z,16.00
2023-05-24T12:50:01.030Z,14.35
2023-05-24T12:55:06.917Z,18.95
2023-05-24T13:00:11.662Z,18.15
2023-05-24T13:05:14.676Z,15.40
2023-05-24T13:10:19.459Z,13.60
2023-05-24T13:15:24.035Z,13.82
2023-05-24T13:20:27.472Z,9.77
2023-05-24T13:25:32.647Z,10.65
2023-05-24T13:30:35.649Z,10.77
2023-05-24T13:35:39.812Z,12.23
2023-05-24T13:40:44.748Z,14.40
2023-05-24T13:45:47.843Z,8.50
2023-05-24T13:50:51.464Z,9.68
2023-05-24T13:55:56.539Z,10.30
2023-05-24T14:00:59.461Z,16.20
2023-05-24T14:06:02.745Z,16.17
2023-05-24T14:11:07.231Z,13.68
2023-05-24T14:16:10.271Z,14.73
2023-05-24T14:21:13.184Z,18.38
2023-05-24T14:26:17.859Z,15.80
2023-05-24T14:31:20.972Z,18.65
2023-05-24T14:36:23.893Z,16.80
2023-05-24T14:41:28.648Z,17.33
2023-05-24T14:46:31.631Z,15.63
2023-05-24T14:51:34.861Z,16.90
2023-05-24T14:56:38.999Z,20.00
2023-05-24T15:01:41.971Z,16.92
2023-05-24T15:06:44.929Z,15.70
2023-05-24T15:11:49.173Z,13.55
2023-05-24T15:16:52.114Z,17.98
2023-05-24T15:21:55.561Z,16.27
2023-05-24T15:26:59.953Z,18.90
2023-05-24T15:32:02.889Z,18.67
2023-05-24T15:37:06.033Z,15.48
2023-05-24T15:42:10.266Z,17.83
2023-05-24T15:47:13.171Z,15.75
2023-05-24T15:52:16.020Z,19.50
2023-05-24T15:57:20.215Z,21.48
2023-05-24T16:02:23.258Z,16.08
2023-05-24T16:07:26.366Z,17.95
2023-05-24T16:12:33.061Z,16.90
2023-05-24T16:17:35.925Z,18.52
2023-05-24T16:22:42.345Z,18.98
2023-05-24T16:32:51.318Z,19.75
2023-05-24T16:37:57.128Z,17.83
2023-05-24T16:43:01.421Z,19.92
2023-05-24T16:48:04.509Z,18.10
2023-05-24T16:53:07.516Z,22.52
2023-05-24T16:58:12.165Z,17.50
2023-05-24T17:03:15.580Z,18.10
2023-05-24T17:08:18.979Z,17.50
2023-05-24T17:13:23.647Z,15.68
2023-05-24T17:18:30.298Z,16.98
2023-05-24T17:23:36.616Z,15.18
2023-05-24T17:28:41.089Z,18.83
2023-05-24T17:33:44.077Z,16.95
2023-05-24T17:38:46.963Z,18.33
2023-05-24T17:43:51.201Z,14.73
2023-05-24T17:48:54.472Z,18.95
2023-05-24T17:53:57.481Z,20.13
2023-05-24T17:59:01.747Z,22.23
2023-05-24T18:04:07.655Z,19.85
2023-05-24T18:09:11.371Z,15.10
2023-05-24T18:14:15.725Z,16.35
2023-05-24T18:19:18.654Z,14.23
2023-05-24T18:24:21.968Z,14.38
2023-05-24T18:29:26.161Z,15.73
2023-05-24T18:34:29.078Z,18.25
2023-05-24T18:39:31.984Z,19.02
2023-05-24T18:44:39.955Z,14.77
2023-05-24T18:49:42.844Z,14.20
2023-05-24T18:54:47.069Z,18.80
2023-05-24T18:59:51.685Z,19.55
2023-05-24T19:04:58.161Z,20.55
2023-05-24T19:10:01.334Z,16.73
2023-05-24T19:15:06.668Z,15.45
2023-05-24T19:20:10.195Z,18.52
2023-05-24T19:25:13.059Z,25.98
2023-05-24T19:30:18.478Z,15.98
2023-05-24T19:35:21.408Z,16.75
2023-05-24T19:40:24.291Z,14.65
2023-05-24T19:45:28.574Z,14.77
2023-05-24T19:50:31.619Z,17.30
2023-05-24T19:55:34.422Z,20.45
2023-05-24T20:00:38.798Z,17.15
2023-05-24T20:05:41.915Z,19.40
2023-05-24T20:10:45.159Z,16.90
2023-05-24T20:15:49.491Z,20.15
2023-05-24T20:20:52.421Z,17.30
2023-05-24T20:25:56.216Z,16.92
2023-05-24T20:31:01.506Z,19.17
2023-05-24T20:36:05.169Z,19.67
2023-05-24T20:41:08.076Z,21.65
2023-05-24T20:46:12.527Z,18.30
2023-05-24T20:51:15.433Z,21.58
2023-05-24T20:56:19.751Z,20.20
2023-05-24T21:01:24.128Z,16.77
2023-05-24T21:06:27.076Z,18.67
2023-05-24T21:11:29.952Z,20.38
2023-05-24T21:16:34.339Z,20.77
2023-05-24T21:21:37.667Z,23.98
2023-05-24T21:26:40.519Z,15.32
2023-05-24T21:31:45.280Z,17.15
2023-05-24T21:36:48.164Z,16.75
2023-05-24T21:41:50.951Z,16.60
2023-05-24T21:46:55.689Z,15.45
2023-05-24T21:51:58.806Z,17.98
2023-05-24T21:57:01.808Z,13.40
2023-05-24T22:02:06.170Z,17.20
2023-05-24T22:07:10.130Z,18.27
2023-05-24T22:12:13.044Z,19.90
2023-05-24T22:17:17.268Z,17.08
2023-05-24T22:22:20.262Z,13.93
2023-05-24T22:27:23.463Z,20.15
2023-05-24T22:32:28.054Z,13.63
2023-05-24T22:37:30.944Z,14.48
2023-05-24T22:42:33.771Z,18.27
2023-05-24T22:47:39.779Z,15.90
2023-05-24T22:52:43.284Z,19.48
2023-05-24T22:57:46.308Z,12.07
2023-05-24T23:02:50.495Z,15.77
2023-05-24T23:07:54.998Z,13.15
2023-05-24T23:12:58.681Z,13.10
2023-05-24T23:18:05.689Z,14.48
2023-05-24T23:23:09.108Z,13.88
2023-05-24T23:28:11.934Z,16.60
2023-05-24T23:33:16.441Z,15.88
2023-05-24T23:38:19.281Z,13.80
2023-05-24T23:43:22.059Z,13.63
2023-05-24T23:48:26.225Z,13.32
2023-05-24T23:53:29.075Z,15.65
2023-05-24T23:58:33.503Z,17.33
